createdAt,value
2016-08-31T00:00:18.382Z,18.69
2016-08-31T00:01:19.002Z,18.65
2016-08-31T00:02:18.281Z,18.66
2016-08-31T00:03:18.245Z,18.62
2016-08-31T00:04:19.943Z,18.62
2016-08-31T00:05:18.871Z,18.66
2016-08-31T00:06:18.858Z,18.66
2016-08-31T00:07:18.122Z,18.66
2016-08-31T00:08:18.077Z,18.66
2016-08-31T00:09:18.749Z,18.54
2016-08-31T00:10:18.725Z,18.58
2016-08-31T00:11:18.685Z,18.55
2016-08-31T00:12:18.656Z,18.57
2016-08-31T00:13:18.623Z,18.58
2016-08-31T00:14:18.602Z,18.6
2016-08-31T00:15:17.864Z,18.57
2016-08-31T00:16:18.530Z,18.51
2016-08-31T00:17:18.503Z,18.57
2016-08-31T00:18:17.775Z,18.52
2016-08-31T00:19:17.742Z,18.52
2016-08-31T00:20:18.018Z,18.51
2016-08-31T00:21:16.984Z,18.44
2016-08-31T00:22:18.347Z,18.5
2016-08-31T00:23:17.622Z,18.47
2016-08-31T00:24:18.287Z,18.37
2016-08-31T00:25:17.566Z,18.44
2016-08-31T00:26:17.529Z,18.37
2016-08-31T00:27:18.192Z,18.45
2016-08-31T00:28:17.464Z,18.42
2016-08-31T00:29:18.128Z,18.44
2016-08-31T00:30:18.097Z,18.41
2016-08-31T00:31:17.375Z,18.36
2016-08-31T00:32:17.342Z,18.36
2016-08-31T00:33:18.013Z,18.36
2016-08-31T00:34:17.974Z,18.33
2016-08-31T00:35:17.947Z,18.35
2016-08-31T00:36:17.914Z,18.33
2016-08-31T00:37:17.190Z,18.26
2016-08-31T00:38:17.854Z,18.32
2016-08-31T00:39:17.819Z,18.21
2016-08-31T00:40:17.098Z,18.27
2016-08-31T00:41:17.758Z,18.29
2016-08-31T00:42:16.335Z,18.29
2016-08-31T00:43:17.699Z,18.18
2016-08-31T00:44:16.971Z,18.25
2016-08-31T00:45:16.943Z,18.26
2016-08-31T00:46:16.214Z,18.27
2016-08-31T00:47:16.875Z,18.25
2016-08-31T00:48:17.564Z,18.21
2016-08-31T00:49:16.810Z,18.18
2016-08-31T00:50:17.996Z,18.17
2016-08-31T00:51:17.453Z,18.17
2016-08-31T00:52:16.026Z,18.14
2016-08-31T00:53:15.998Z,18.21
2016-08-31T00:54:17.358Z,18.1
2016-08-31T00:55:16.624Z,18.14
2016-08-31T00:56:17.297Z,18.14
2016-08-31T00:57:16.563Z,18.07
2016-08-31T00:58:17.243Z,18.08
2016-08-31T00:59:17.207Z,18.07
2016-08-31T01:00:16.471Z,18.11
2016-08-31T01:01:17.138Z,17.96
2016-08-31T01:02:17.108Z,17.99
2016-08-31T01:03:17.074Z,17.97
2016-08-31T01:04:17.045Z,17.96
2016-08-31T01:05:17.017Z,17.96
2016-08-31T01:06:16.289Z,17.96
2016-08-31T01:07:16.962Z,17.95
2016-08-31T01:08:16.228Z,17.96
2016-08-31T01:09:15.498Z,17.96
2016-08-31T01:10:17.096Z,17.96
2016-08-31T01:11:16.829Z,17.99
2016-08-31T01:12:16.801Z,17.92
2016-08-31T01:13:16.070Z,17.92
2016-08-31T01:14:16.740Z,17.81
2016-08-31T01:15:16.712Z,17.89
2016-08-31T01:16:15.969Z,17.87
2016-08-31T01:17:15.947Z,17.9
2016-08-31T01:18:16.615Z,17.84
2016-08-31T01:19:15.880Z,17.82
2016-08-31T01:20:15.877Z,17.84
2016-08-31T01:21:15.826Z,17.82
2016-08-31T01:22:16.487Z,17.82
2016-08-31T01:23:15.762Z,17.78
2016-08-31T01:24:16.431Z,17.78
2016-08-31T01:25:15.947Z,17.7
2016-08-31T01:26:15.668Z,17.68
2016-08-31T01:27:16.333Z,17.71
2016-08-31T01:28:15.604Z,17.68
2016-08-31T01:29:16.311Z,17.7
2016-08-31T01:30:16.286Z,17.56
2016-08-31T01:31:15.509Z,17.58
2016-08-31T01:32:16.174Z,17.55
2016-08-31T01:33:15.449Z,17.51
2016-08-31T01:34:15.426Z,17.55
2016-08-31T01:35:15.386Z,17.52
2016-08-31T01:36:16.048Z,17.46
2016-08-31T01:37:16.018Z,17.43
2016-08-31T01:38:15.987Z,17.44
2016-08-31T01:39:15.962Z,17.41
2016-08-31T01:40:15.628Z,17.44
2016-08-31T01:41:15.917Z,17.41
2016-08-31T01:42:15.166Z,17.37
2016-08-31T01:43:15.832Z,17.44
2016-08-31T01:44:15.803Z,17.41
2016-08-31T01:45:15.857Z,17.43
2016-08-31T01:46:14.347Z,17.34
2016-08-31T01:47:15.709Z,17.37
2016-08-31T01:48:15.684Z,17.4
2016-08-31T01:49:15.653Z,17.33
2016-08-31T01:50:15.611Z,17.37
2016-08-31T01:51:14.892Z,17.36
2016-08-31T01:52:15.567Z,17.36
2016-08-31T01:53:15.521Z,17.34
2016-08-31T01:54:15.492Z,17.37
2016-08-31T01:55:15.542Z,17.4
2016-08-31T01:56:15.429Z,17.41
2016-08-31T01:57:15.393Z,17.41
2016-08-31T01:58:14.663Z,17.31
2016-08-31T01:59:15.332Z,17.37
2016-08-31T02:00:14.607Z,17.51
2016-08-31T02:01:15.274Z,17.4
2016-08-31T02:02:15.252Z,17.44
2016-08-31T02:03:15.210Z,17.38
2016-08-31T02:04:14.482Z,17.34
2016-08-31T02:05:14.486Z,17.33
2016-08-31T02:06:14.413Z,17.25
2016-08-31T02:07:14.388Z,17.21
2016-08-31T02:08:14.356Z,17.22
2016-08-31T02:09:15.034Z,17.21
2016-08-31T02:10:14.295Z,17.19
2016-08-31T02:11:14.955Z,17.08
2016-08-31T02:12:14.925Z,17.11
2016-08-31T02:13:14.196Z,17.08
2016-08-31T02:14:14.162Z,17.08
2016-08-31T02:15:14.829Z,17
2016-08-31T02:16:14.798Z,16.96
2016-08-31T02:17:14.768Z,16.94
2016-08-31T02:18:14.042Z,16.94
2016-08-31T02:19:14.701Z,16.94
2016-08-31T02:20:14.412Z,16.93
2016-08-31T02:21:14.645Z,16.79
2016-08-31T02:22:14.605Z,16.83
2016-08-31T02:23:13.884Z,16.83
2016-08-31T02:24:13.852Z,16.76
2016-08-31T02:25:13.847Z,16.76
2016-08-31T02:26:13.810Z,16.75
2016-08-31T02:27:14.449Z,16.68
2016-08-31T02:28:13.727Z,16.66
2016-08-31T02:29:14.395Z,16.56
2016-08-31T02:30:14.407Z,16.53
2016-08-31T02:31:13.631Z,16.5
2016-08-31T02:32:14.291Z,16.53
2016-08-31T02:33:14.264Z,16.46
2016-08-31T02:34:14.231Z,16.45
2016-08-31T02:35:13.509Z,16.42
2016-08-31T02:36:14.170Z,16.38
2016-08-31T02:37:13.441Z,16.33
2016-08-31T02:38:14.107Z,16.34
2016-08-31T02:39:14.075Z,16.28
2016-08-31T02:40:13.343Z,16.28
2016-08-31T02:41:13.338Z,16.28
2016-08-31T02:42:13.977Z,16.34
2016-08-31T02:43:12.556Z,16.38
2016-08-31T02:44:13.914Z,16.33
2016-08-31T02:45:13.883Z,16.28
2016-08-31T02:46:13.160Z,16.3
2016-08-31T02:47:13.825Z,16.34
2016-08-31T02:48:13.791Z,16.38
2016-08-31T02:49:13.059Z,16.34
2016-08-31T02:50:14.220Z,16.24
2016-08-31T02:51:13.690Z,16.3
2016-08-31T02:52:13.661Z,16.25
2016-08-31T02:53:12.936Z,16.24
2016-08-31T02:54:13.610Z,16.23
2016-08-31T02:55:12.172Z,16.15
2016-08-31T02:56:13.531Z,16.09
2016-08-31T02:57:13.507Z,16.02
2016-08-31T02:58:13.479Z,15.96
2016-08-31T02:59:13.436Z,15.93
2016-08-31T03:00:12.730Z,15.9
2016-08-31T03:01:11.982Z,15.89
2016-08-31T03:02:13.344Z,15.87
2016-08-31T03:03:12.633Z,15.8
2016-08-31T03:04:13.289Z,15.82
2016-08-31T03:05:13.253Z,15.75
2016-08-31T03:06:13.216Z,15.75
2016-08-31T03:07:12.489Z,15.72
2016-08-31T03:08:13.151Z,15.71
2016-08-31T03:09:13.116Z,15.64
2016-08-31T03:10:13.502Z,15.69
2016-08-31T03:11:12.363Z,15.74
2016-08-31T03:12:12.333Z,15.62
2016-08-31T03:13:12.292Z,15.67
2016-08-31T03:14:12.958Z,15.68
2016-08-31T03:15:12.233Z,15.59
2016-08-31T03:16:11.501Z,15.6
2016-08-31T03:17:12.179Z,15.6
2016-08-31T03:18:12.828Z,15.56
2016-08-31T03:19:12.104Z,15.51
2016-08-31T03:20:12.764Z,15.49
2016-08-31T03:21:12.728Z,15.46
2016-08-31T03:22:12.011Z,15.51
2016-08-31T03:23:11.968Z,15.46
2016-08-31T03:24:12.634Z,15.44
2016-08-31T03:25:11.904Z,15.36
2016-08-31T03:26:11.875Z,15.44
2016-08-31T03:27:12.548Z,15.47
2016-08-31T03:28:12.507Z,15.49
2016-08-31T03:29:11.078Z,15.34
2016-08-31T03:30:11.742Z,15.36
2016-08-31T03:31:12.409Z,15.38
2016-08-31T03:32:12.373Z,15.34
2016-08-31T03:33:11.648Z,15.41
2016-08-31T03:34:11.614Z,15.34
2016-08-31T03:35:11.588Z,15.25
2016-08-31T03:36:12.253Z,15.27
2016-08-31T03:37:12.226Z,15.27
2016-08-31T03:38:11.484Z,15.31
2016-08-31T03:39:11.456Z,15.34
2016-08-31T03:40:11.569Z,15.25
2016-08-31T03:41:11.385Z,15.21
2016-08-31T03:42:12.051Z,15.21
2016-08-31T03:43:11.326Z,15.19
2016-08-31T03:44:10.598Z,15.16
2016-08-31T03:45:11.960Z,15.2
2016-08-31T03:46:11.926Z,15.2
2016-08-31T03:47:11.193Z,15.2
2016-08-31T03:48:11.859Z,15.19
2016-08-31T03:49:11.130Z,15.17
2016-08-31T03:50:11.095Z,15.23
2016-08-31T03:51:11.070Z,15.13
2016-08-31T03:52:11.041Z,15.14
2016-08-31T03:53:11.699Z,15.13
2016-08-31T03:54:11.672Z,15.14
2016-08-31T03:55:10.938Z,15.11
2016-08-31T03:56:10.213Z,15.1
2016-08-31T03:57:10.869Z,15.09
2016-08-31T03:58:11.529Z,15.11
2016-08-31T03:59:10.803Z,15.09
2016-08-31T04:00:10.079Z,15.01
2016-08-31T04:01:10.734Z,15.1
2016-08-31T04:02:11.401Z,15.01
2016-08-31T04:03:10.677Z,15.1
2016-08-31T04:04:11.343Z,15.02
2016-08-31T04:05:09.910Z,15.07
2016-08-31T04:06:09.878Z,15.1
2016-08-31T04:07:11.235Z,14.95
2016-08-31T04:08:11.207Z,14.95
2016-08-31T04:09:10.476Z,14.98
2016-08-31T04:10:10.443Z,14.96
2016-08-31T04:11:11.120Z,14.95
2016-08-31T04:12:11.075Z,14.98
2016-08-31T04:13:10.342Z,14.95
2016-08-31T04:14:11.008Z,14.95
2016-08-31T04:15:10.282Z,14.96
2016-08-31T04:16:10.246Z,14.99
2016-08-31T04:17:10.920Z,15.09
2016-08-31T04:18:09.490Z,14.99
2016-08-31T04:19:10.846Z,15.03
2016-08-31T04:20:09.425Z,15.11
2016-08-31T04:21:10.777Z,15.1
2016-08-31T04:22:10.057Z,15.11
2016-08-31T04:23:10.035Z,15.13
2016-08-31T04:24:10.684Z,15.13
2016-08-31T04:25:10.652Z,15.06
2016-08-31T04:26:24.925Z,15.21
2016-08-31T04:27:09.889Z,15.23
2016-08-31T04:28:09.859Z,15.19
2016-08-31T04:29:09.825Z,15.16
2016-08-31T04:30:10.516Z,15.2
2016-08-31T04:31:09.760Z,15.14
2016-08-31T04:32:09.725Z,15.21
2016-08-31T04:33:09.692Z,15.23
2016-08-31T04:34:10.357Z,15.34
2016-08-31T04:35:08.936Z,15.38
2016-08-31T04:36:10.304Z,15.43
2016-08-31T04:37:09.563Z,15.47
2016-08-31T04:38:09.531Z,15.46
2016-08-31T04:39:09.498Z,15.47
2016-08-31T04:40:10.166Z,15.51
2016-08-31T04:41:10.141Z,15.57
2016-08-31T04:42:10.102Z,15.6
2016-08-31T04:43:09.373Z,15.68
2016-08-31T04:44:10.043Z,15.65
2016-08-31T04:45:10.003Z,15.67
2016-08-31T04:46:09.270Z,15.6
2016-08-31T04:47:09.937Z,15.65
2016-08-31T04:48:09.209Z,15.78
2016-08-31T04:49:09.875Z,15.76
2016-08-31T04:50:09.840Z,15.78
2016-08-31T04:51:08.415Z,15.75
2016-08-31T04:52:09.771Z,15.78
2016-08-31T04:53:09.742Z,15.8
2016-08-31T04:54:09.709Z,15.8
2016-08-31T04:55:10.181Z,15.84
2016-08-31T04:56:09.643Z,15.82
2016-08-31T04:57:09.619Z,15.86
2016-08-31T04:58:09.597Z,15.89
2016-08-31T04:59:08.851Z,15.93
2016-08-31T05:00:09.520Z,15.97
2016-08-31T05:01:09.497Z,15.97
2016-08-31T05:02:09.451Z,16.07
2016-08-31T05:03:09.426Z,16.01
2016-08-31T05:04:08.693Z,16.04
2016-08-31T05:05:09.359Z,16.09
2016-08-31T05:06:09.323Z,16.15
2016-08-31T05:07:08.593Z,16.15
2016-08-31T05:08:08.574Z,16.21
2016-08-31T05:09:09.262Z,16.23
2016-08-31T05:10:07.804Z,16.2
2016-08-31T05:11:08.466Z,16.31
2016-08-31T05:12:08.437Z,16.21
2016-08-31T05:13:08.405Z,16.21
2016-08-31T05:14:09.065Z,16.35
2016-08-31T05:15:09.045Z,16.31
2016-08-31T05:16:08.307Z,16.39
2016-08-31T05:17:08.978Z,16.42
2016-08-31T05:18:08.246Z,16.5
2016-08-31T05:19:08.214Z,16.45
2016-08-31T05:20:08.874Z,16.49
2016-08-31T05:21:08.850Z,16.57
2016-08-31T05:22:08.117Z,16.61
2016-08-31T05:23:07.389Z,16.67
2016-08-31T05:24:07.359Z,16.64
2016-08-31T05:25:08.020Z,16.68
2016-08-31T05:26:07.992Z,16.7
2016-08-31T05:27:07.960Z,16.76
2016-08-31T05:28:08.621Z,16.79
2016-08-31T05:29:07.895Z,16.81
2016-08-31T05:30:07.887Z,16.94
2016-08-31T05:31:07.825Z,16.89
2016-08-31T05:32:08.496Z,16.96
2016-08-31T05:33:07.766Z,16.94
2016-08-31T05:34:07.738Z,17.01
2016-08-31T05:35:07.847Z,16.93
2016-08-31T05:36:07.670Z,17.07
2016-08-31T05:37:07.644Z,17.01
2016-08-31T05:38:08.306Z,17.11
2016-08-31T05:39:07.581Z,17.11
2016-08-31T05:40:07.548Z,17.11
2016-08-31T05:41:07.516Z,17.14
2016-08-31T05:42:08.179Z,17.16
2016-08-31T05:43:07.459Z,17.26
2016-08-31T05:44:07.425Z,17.33
2016-08-31T05:45:08.168Z,17.33
2016-08-31T05:46:08.053Z,17.37
2016-08-31T05:47:08.034Z,17.48
2016-08-31T05:48:07.992Z,17.4
2016-08-31T05:49:07.270Z,17.36
2016-08-31T05:50:07.931Z,17.44
2016-08-31T05:51:07.900Z,17.46
2016-08-31T05:52:07.874Z,17.54
2016-08-31T05:53:07.145Z,17.52
2016-08-31T05:54:07.110Z,17.56
2016-08-31T05:55:08.007Z,17.68
2016-08-31T05:56:07.748Z,17.64
2016-08-31T05:57:07.734Z,17.71
2016-08-31T05:58:07.684Z,17.74
2016-08-31T05:59:08.422Z,17.72
2016-08-31T06:00:08.023Z,17.78
2016-08-31T06:01:07.586Z,17.9
2016-08-31T06:02:07.560Z,17.87
2016-08-31T06:03:06.833Z,17.95
2016-08-31T06:04:06.807Z,17.97
2016-08-31T06:05:07.631Z,18
2016-08-31T06:06:07.693Z,18.05
2016-08-31T06:07:07.405Z,18.02
2016-08-31T06:08:06.675Z,18.11
2016-08-31T06:09:07.340Z,18.21
2016-08-31T06:10:08.765Z,18.18
2016-08-31T06:11:07.283Z,18.23
2016-08-31T06:12:05.857Z,18.2
2016-08-31T06:13:07.220Z,18.36
2016-08-31T06:14:06.492Z,18.42
2016-08-31T06:15:07.648Z,18.5
2016-08-31T06:16:06.428Z,18.51
2016-08-31T06:17:06.405Z,18.67
2016-08-31T06:18:07.069Z,18.62
2016-08-31T06:19:07.031Z,18.73
2016-08-31T06:20:07.084Z,18.78
2016-08-31T06:21:06.278Z,18.82
2016-08-31T06:22:06.245Z,18.94
2016-08-31T06:23:06.215Z,18.98
2016-08-31T06:24:06.186Z,18.9
2016-08-31T06:25:07.859Z,19.08
2016-08-31T06:26:06.829Z,19.13
2016-08-31T06:27:06.789Z,19.19
2016-08-31T06:28:06.764Z,19.23
2016-08-31T06:29:06.734Z,19.37
2016-08-31T06:30:06.184Z,19.47
2016-08-31T06:31:05.974Z,19.68
2016-08-31T06:32:05.279Z,19.91
2016-08-31T06:33:05.220Z,20.05
2016-08-31T06:34:05.886Z,20.47
2016-08-31T06:35:05.857Z,20.88
2016-08-31T06:36:05.872Z,21.17
2016-08-31T06:37:05.100Z,21.59
2016-08-31T06:38:05.771Z,21.94
2016-08-31T06:39:05.737Z,22.09
2016-08-31T06:40:06.558Z,22.4
2016-08-31T06:41:05.691Z,22.64
2016-08-31T06:42:06.351Z,22.77
2016-08-31T06:43:05.623Z,22.98
2016-08-31T06:44:06.305Z,23.12
2016-08-31T06:45:05.791Z,23.35
2016-08-31T06:46:05.688Z,23.9
2016-08-31T06:47:06.009Z,24.27
2016-08-31T06:48:06.180Z,24.57
2016-08-31T06:49:06.160Z,24.71
2016-08-31T06:50:05.439Z,24.87
2016-08-31T06:51:05.402Z,25.15
2016-08-31T06:52:04.682Z,25.33
2016-08-31T06:53:06.049Z,25.67
2016-08-31T06:54:05.322Z,26.06
2016-08-31T06:55:06.025Z,26.37
2016-08-31T06:56:05.976Z,26.91
2016-08-31T06:57:05.244Z,27.37
2016-08-31T06:58:05.221Z,27.77
2016-08-31T06:59:05.195Z,28.12
2016-08-31T07:00:05.188Z,28.51
2016-08-31T07:01:05.849Z,28.76
2016-08-31T07:02:04.418Z,28.8
2016-08-31T07:03:05.099Z,28.81
2016-08-31T07:04:05.806Z,28.74
2016-08-31T07:05:05.080Z,28.54
2016-08-31T07:06:05.021Z,28.43
2016-08-31T07:07:05.005Z,28.52
2016-08-31T07:08:05.671Z,28.67
2016-08-31T07:09:05.650Z,28.86
2016-08-31T07:10:04.929Z,29.14
2016-08-31T07:11:04.917Z,29.39
2016-08-31T07:12:05.578Z,29.57
2016-08-31T07:13:05.557Z,29.63
2016-08-31T07:14:04.833Z,29.6
2016-08-31T07:15:04.289Z,29.55
2016-08-31T07:16:05.478Z,29.71
2016-08-31T07:17:04.761Z,30.16
2016-08-31T07:18:04.045Z,30.53
2016-08-31T07:19:04.716Z,30.94
2016-08-31T07:20:04.004Z,31.2
2016-08-31T07:21:04.674Z,31.53
2016-08-31T07:22:05.343Z,31.43
2016-08-31T07:23:04.626Z,31.29
2016-08-31T07:24:05.300Z,31.07
2016-08-31T07:25:05.275Z,30.64
2016-08-31T07:26:05.255Z,30.26
2016-08-31T07:27:05.231Z,29.78
2016-08-31T07:28:04.510Z,29.39
2016-08-31T07:29:04.493Z,29.09
2016-08-31T07:30:05.505Z,28.81
2016-08-31T07:31:04.442Z,28.54
2016-08-31T07:32:03.728Z,28.24
2016-08-31T07:33:05.091Z,28.11
2016-08-31T07:34:04.372Z,28.06
2016-08-31T07:35:04.132Z,28.19
2016-08-31T07:36:05.022Z,28.39
2016-08-31T07:37:05.000Z,28.61
2016-08-31T07:38:04.285Z,29.12
2016-08-31T07:39:04.963Z,29.89
2016-08-31T07:40:04.237Z,30.73
2016-08-31T07:41:04.214Z,31.5
2016-08-31T07:42:04.882Z,32.14
2016-08-31T07:43:04.863Z,32.82
2016-08-31T07:44:04.840Z,33.38
2016-08-31T07:45:04.371Z,33.82
2016-08-31T07:46:04.099Z,34.52
2016-08-31T07:47:04.079Z,34.92
2016-08-31T07:48:04.749Z,35.16
2016-08-31T07:49:04.728Z,35.18
2016-08-31T07:50:04.015Z,35.45
2016-08-31T07:51:03.995Z,35.72
2016-08-31T07:52:04.724Z,36.05
2016-08-31T07:53:04.648Z,36.35
2016-08-31T07:54:04.626Z,36.56
2016-08-31T07:55:04.644Z,36.66
2016-08-31T07:56:04.630Z,37.05
2016-08-31T07:57:04.563Z,37.32
2016-08-31T07:58:03.849Z,37.36
2016-08-31T07:59:03.829Z,37.56
2016-08-31T08:00:04.505Z,37.49
2016-08-31T08:01:03.093Z,37.39
2016-08-31T08:02:03.077Z,37.13
2016-08-31T08:03:03.080Z,37.4
2016-08-31T08:04:03.045Z,37.03
2016-08-31T08:05:05.260Z,36.32
2016-08-31T08:06:03.023Z,35.71
2016-08-31T08:07:03.055Z,35.65
2016-08-31T08:08:02.959Z,36.07
2016-08-31T08:09:04.333Z,35.9
2016-08-31T08:10:04.375Z,35.29
2016-08-31T08:11:04.283Z,34.53
2016-08-31T08:12:04.268Z,34.09
2016-08-31T08:13:04.247Z,33.6
2016-08-31T08:14:03.532Z,33.14
2016-08-31T08:15:03.511Z,32.69
2016-08-31T08:16:03.490Z,32.4
2016-08-31T08:17:04.194Z,32.04
2016-08-31T08:18:02.759Z,31.58
2016-08-31T08:19:04.194Z,31.41
2016-08-31T08:20:04.109Z,32.26
2016-08-31T08:21:04.086Z,32.82
2016-08-31T08:22:03.363Z,33.22
2016-08-31T08:23:03.345Z,33.79
2016-08-31T08:24:04.016Z,34.77
2016-08-31T08:25:03.307Z,35.85
2016-08-31T08:26:03.976Z,36.68
2016-08-31T08:27:03.265Z,37.55
2016-08-31T08:28:03.944Z,38.37
2016-08-31T08:29:03.218Z,39.11
2016-08-31T08:30:03.897Z,39.57
2016-08-31T08:31:03.872Z,39.96
2016-08-31T08:32:03.851Z,40.38
2016-08-31T08:33:03.134Z,40.51
2016-08-31T08:34:03.120Z,40.51
2016-08-31T08:35:03.099Z,40.22
2016-08-31T08:36:03.082Z,39.51
2016-08-31T08:37:03.763Z,39.26
2016-08-31T08:38:03.745Z,39.3
2016-08-31T08:39:02.557Z,39.25
2016-08-31T08:40:03.696Z,39.4
2016-08-31T08:41:02.985Z,39.63
2016-08-31T08:42:02.971Z,40.07
2016-08-31T08:43:02.946Z,40.7
2016-08-31T08:44:03.628Z,41.18
2016-08-31T08:45:03.603Z,41.71
2016-08-31T08:46:02.193Z,42.31
2016-08-31T08:47:03.577Z,42.95
2016-08-31T08:48:02.855Z,43.34
2016-08-31T08:49:03.535Z,43.68
2016-08-31T08:50:02.820Z,43.94
2016-08-31T08:51:03.506Z,44.29
2016-08-31T08:52:02.787Z,44.62
2016-08-31T08:53:03.460Z,44.83
2016-08-31T08:54:02.053Z,44.6
2016-08-31T08:55:03.634Z,44.59
2016-08-31T08:56:02.718Z,44.78
2016-08-31T08:57:02.004Z,44.92
2016-08-31T08:58:03.378Z,45.05
2016-08-31T08:59:02.670Z,45.07
2016-08-31T09:00:02.737Z,44.9
2016-08-31T09:01:03.337Z,44.82
2016-08-31T09:02:03.405Z,45.12
2016-08-31T09:03:03.486Z,45.4
2016-08-31T09:04:03.288Z,45.57
2016-08-31T09:05:02.577Z,45.66
2016-08-31T09:06:03.263Z,45.76
2016-08-31T09:07:02.563Z,45.89
2016-08-31T09:08:02.534Z,46.12
2016-08-31T09:09:03.214Z,46.28
2016-08-31T09:10:01.806Z,46.34
2016-08-31T09:11:02.489Z,46.39
2016-08-31T09:12:02.482Z,46.46
2016-08-31T09:13:03.291Z,46.46
2016-08-31T09:14:03.142Z,46.66
2016-08-31T09:15:03.125Z,46.78
2016-08-31T09:16:02.412Z,46.81
2016-08-31T09:17:03.105Z,46.84
2016-08-31T09:18:03.085Z,46.88
2016-08-31T09:19:03.070Z,46.77
2016-08-31T09:20:03.059Z,46.84
2016-08-31T09:21:03.092Z,46.66
2016-08-31T09:22:03.030Z,46.24
2016-08-31T09:23:02.318Z,45.73
2016-08-31T09:24:03.003Z,45.33
2016-08-31T09:25:02.291Z,44.62
2016-08-31T09:26:03.024Z,44.25
2016-08-31T09:27:02.966Z,43.93
2016-08-31T09:28:02.950Z,43.65
2016-08-31T09:29:03.057Z,43.37
2016-08-31T09:30:02.933Z,43
2016-08-31T09:31:02.228Z,43.07
2016-08-31T09:32:01.502Z,43.31
2016-08-31T09:33:02.880Z,43.46
2016-08-31T09:34:02.173Z,43.56
2016-08-31T09:35:04.902Z,43.81
2016-08-31T09:36:02.835Z,43.97
2016-08-31T09:37:01.432Z,44.25
2016-08-31T09:38:02.121Z,44.46
2016-08-31T09:39:02.115Z,44.51
2016-08-31T09:40:02.526Z,44.5
2016-08-31T09:41:02.777Z,44.59
2016-08-31T09:42:02.059Z,44.79
2016-08-31T09:43:02.044Z,44.97
2016-08-31T09:44:02.727Z,45.26
2016-08-31T09:45:02.723Z,45.47
2016-08-31T09:46:02.004Z,45.42
2016-08-31T09:47:01.293Z,45.5
2016-08-31T09:48:02.670Z,45.5
2016-08-31T09:49:02.668Z,45.54
2016-08-31T09:50:01.952Z,45.77
2016-08-31T09:51:02.631Z,45.98
2016-08-31T09:52:02.623Z,45.85
2016-08-31T09:53:02.602Z,45.8
2016-08-31T09:54:01.199Z,45.76
2016-08-31T09:55:02.431Z,45.4
2016-08-31T09:56:02.565Z,45.13
2016-08-31T09:57:02.551Z,44.79
2016-08-31T09:58:02.548Z,44.19
2016-08-31T09:59:02.527Z,43.95
2016-08-31T10:00:01.814Z,43.12
2016-08-31T10:01:01.803Z,42.04
2016-08-31T10:02:02.482Z,41.41
2016-08-31T10:03:01.776Z,41.25
2016-08-31T10:04:01.759Z,40.98
2016-08-31T10:05:01.048Z,41.07
2016-08-31T10:06:02.426Z,40.03
2016-08-31T10:07:01.017Z,39.22
2016-08-31T10:08:02.397Z,39.16
2016-08-31T10:09:02.380Z,39.13
2016-08-31T10:10:01.001Z,39.36
2016-08-31T10:11:01.651Z,39.66
2016-08-31T10:12:01.060Z,40.26
2016-08-31T10:13:02.328Z,40.91
2016-08-31T10:14:01.606Z,41.49
2016-08-31T10:15:02.285Z,42.08
2016-08-31T10:16:02.275Z,42.45
2016-08-31T10:17:02.256Z,42.89
2016-08-31T10:18:02.242Z,43.08
2016-08-31T10:19:01.527Z,43.52
2016-08-31T10:20:01.523Z,44
2016-08-31T10:21:02.195Z,44.31
2016-08-31T10:22:01.493Z,44.62
2016-08-31T10:23:02.163Z,44.64
2016-08-31T10:24:02.157Z,44.78
2016-08-31T10:25:02.141Z,44.92
2016-08-31T10:26:01.423Z,44.92
2016-08-31T10:27:02.112Z,44.85
2016-08-31T10:28:02.094Z,44.83
2016-08-31T10:29:02.081Z,44.5
2016-08-31T10:30:00.814Z,44.1
2016-08-31T10:31:01.357Z,43.76
2016-08-31T10:32:02.035Z,43.75
2016-08-31T10:33:02.025Z,43.68
2016-08-31T10:34:02.014Z,43.72
2016-08-31T10:35:01.990Z,43.66
2016-08-31T10:36:01.338Z,43.73
2016-08-31T10:37:01.268Z,43.87
2016-08-31T10:38:01.331Z,44.09
2016-08-31T10:39:02.388Z,44.06
2016-08-31T10:40:01.231Z,44.09
2016-08-31T10:41:01.300Z,44
2016-08-31T10:42:01.196Z,43.97
2016-08-31T10:43:01.872Z,43.94
2016-08-31T10:44:01.166Z,44.13
2016-08-31T10:45:01.854Z,44.18
2016-08-31T10:46:01.835Z,43.84
2016-08-31T10:47:01.821Z,43.9
2016-08-31T10:48:01.118Z,44.09
2016-08-31T10:49:01.092Z,44.16
2016-08-31T10:50:01.783Z,44.48
2016-08-31T10:51:01.759Z,44.4
2016-08-31T10:52:00.351Z,44.13
2016-08-31T10:53:01.037Z,43.95
2016-08-31T10:54:01.714Z,44.05
2016-08-31T10:55:01.750Z,44.16
2016-08-31T10:56:01.681Z,44.18
2016-08-31T10:57:00.271Z,44.18
2016-08-31T10:58:01.649Z,44.18
2016-08-31T10:59:01.635Z,44.18
2016-08-31T11:00:02.658Z,44.24
2016-08-31T11:01:00.209Z,44.1
2016-08-31T11:02:00.892Z,43.97
2016-08-31T11:03:01.572Z,43.98
2016-08-31T11:04:01.709Z,43.79
2016-08-31T11:05:01.761Z,43.72
2016-08-31T11:06:00.856Z,43.5
2016-08-31T11:07:00.812Z,43.31
2016-08-31T11:08:01.496Z,43.28
2016-08-31T11:09:00.786Z,43.08
2016-08-31T11:10:00.067Z,42.78
2016-08-31T11:11:01.447Z,42.49
2016-08-31T11:12:01.439Z,42.11
2016-08-31T11:13:01.426Z,41.73
2016-08-31T11:14:00.755Z,41.18
2016-08-31T11:15:01.387Z,40.38
2016-08-31T11:16:01.371Z,39.75
2016-08-31T11:17:00.652Z,38.95
2016-08-31T11:18:00.648Z,38.06
2016-08-31T11:19:01.316Z,37.4
2016-08-31T11:20:01.374Z,37.12
2016-08-31T11:21:01.274Z,37.06
2016-08-31T11:22:01.261Z,36.99
2016-08-31T11:23:01.244Z,36.93
2016-08-31T11:24:00.527Z,36.78
2016-08-31T11:25:00.502Z,36.57
2016-08-31T11:26:01.181Z,36.29
2016-08-31T11:27:01.175Z,36.09
2016-08-31T11:28:01.148Z,35.85
2016-08-31T11:29:00.434Z,35.56
2016-08-31T11:30:00.427Z,35.16
2016-08-31T11:31:00.392Z,34.88
2016-08-31T11:32:00.370Z,34.49
2016-08-31T11:33:01.063Z,34.08
2016-08-31T11:34:00.335Z,33.72
2016-08-31T11:35:01.018Z,33.5
2016-08-31T11:36:00.301Z,33.32
2016-08-31T11:37:00.294Z,32.94
2016-08-31T11:38:00.958Z,32.62
2016-08-31T11:39:00.232Z,32.33
2016-08-31T11:40:00.911Z,31.95
2016-08-31T11:41:00.883Z,31.84
2016-08-31T11:42:00.164Z,31.72
2016-08-31T11:43:00.144Z,31.54
2016-08-31T11:44:00.865Z,31.34
2016-08-31T11:45:00.798Z,31.19
2016-08-31T11:46:00.094Z,31.07
2016-08-31T11:47:00.060Z,30.95
2016-08-31T11:48:00.037Z,30.89
2016-08-31T11:49:00.016Z,30.67
2016-08-31T11:50:00.690Z,30.65
2016-08-31T11:51:00.661Z,30.38
2016-08-31T11:51:59.950Z,30.38
2016-08-31T11:52:59.926Z,30.26
2016-08-31T11:54:00.597Z,30.15
2016-08-31T11:54:59.875Z,30.11
2016-08-31T11:56:00.645Z,29.98
2016-08-31T11:56:59.834Z,29.83
2016-08-31T11:57:59.811Z,29.8
2016-08-31T11:58:59.785Z,29.73
2016-08-31T11:59:59.762Z,29.61
2016-08-31T12:01:00.466Z,29.6
2016-08-31T12:01:59.721Z,29.61
2016-08-31T12:02:59.691Z,29.58
2016-08-31T12:03:59.671Z,29.45
2016-08-31T12:04:59.650Z,29.36
2016-08-31T12:05:59.618Z,29.33
2016-08-31T12:07:00.305Z,29.18
2016-08-31T12:08:00.268Z,29.12
2016-08-31T12:09:00.248Z,29.09
2016-08-31T12:09:59.525Z,29.06
2016-08-31T12:10:59.512Z,29
2016-08-31T12:11:58.779Z,28.86
2016-08-31T12:12:58.755Z,28.86
2016-08-31T12:13:59.426Z,28.77
2016-08-31T12:15:00.098Z,28.67
2016-08-31T12:15:59.380Z,28.73
2016-08-31T12:17:00.053Z,28.66
2016-08-31T12:17:59.340Z,28.66
2016-08-31T12:19:00.004Z,28.55
2016-08-31T12:19:59.975Z,28.49
2016-08-31T12:20:59.256Z,28.46
2016-08-31T12:21:59.958Z,28.43
2016-08-31T12:22:59.208Z,28.37
2016-08-31T12:23:59.876Z,28.33
2016-08-31T12:24:59.863Z,28.24
2016-08-31T12:25:59.150Z,28.21
2016-08-31T12:26:59.808Z,28.18
2016-08-31T12:27:59.092Z,28.12
2016-08-31T12:28:59.760Z,28.07
2016-08-31T12:29:59.735Z,28.03
2016-08-31T12:30:59.708Z,28.09
2016-08-31T12:31:58.986Z,28.03
2016-08-31T12:32:58.275Z,28
2016-08-31T12:33:58.245Z,28.09
2016-08-31T12:34:59.608Z,28
2016-08-31T12:35:59.589Z,27.99
2016-08-31T12:36:59.171Z,28.03
2016-08-31T12:37:58.876Z,27.85
2016-08-31T12:38:59.512Z,27.85
2016-08-31T12:39:59.482Z,27.88
2016-08-31T12:40:58.066Z,27.88
2016-08-31T12:41:58.746Z,27.85
2016-08-31T12:42:59.176Z,27.88
2016-08-31T12:43:59.443Z,27.88
2016-08-31T12:44:59.363Z,27.85
2016-08-31T12:45:57.942Z,27.69
2016-08-31T12:46:58.611Z,27.65
2016-08-31T12:47:58.584Z,27.72
2016-08-31T12:48:59.266Z,27.72
2016-08-31T12:49:59.237Z,27.67
2016-08-31T12:50:59.211Z,27.66
2016-08-31T12:51:58.488Z,27.67
2016-08-31T12:52:58.467Z,27.67
2016-08-31T12:53:59.133Z,27.66
2016-08-31T12:55:46.370Z,27.66